createdAt,value
2017-12-21T00:00:45.441Z,0
2017-12-21T00:01:53.521Z,0
2017-12-21T00:03:01.610Z,0
2017-12-21T00:04:09.693Z,0
2017-12-21T00:05:17.796Z,0
2017-12-21T00:06:25.864Z,0
2017-12-21T00:07:33.954Z,0
2017-12-21T00:08:42.036Z,0
2017-12-21T00:09:50.124Z,0
2017-12-21T00:10:58.212Z,0
2017-12-21T00:12:06.295Z,0
2017-12-21T00:13:14.382Z,0
2017-12-21T00:14:22.468Z,0
2017-12-21T00:15:30.562Z,0
2017-12-21T00:16:38.657Z,0
2017-12-21T00:17:46.722Z,0
2017-12-21T00:18:54.811Z,0
2017-12-21T00:20:02.892Z,0
2017-12-21T00:21:10.981Z,0
2017-12-21T00:22:19.066Z,0
2017-12-21T00:23:27.153Z,0
2017-12-21T00:24:35.240Z,0
2017-12-21T00:25:43.589Z,0
2017-12-21T00:26:51.678Z,0
2017-12-21T00:27:59.759Z,0
2017-12-21T00:29:07.847Z,0
2017-12-21T00:30:15.932Z,0
2017-12-21T00:31:24.017Z,0
2017-12-21T00:32:32.103Z,0
2017-12-21T00:33:40.232Z,0
2017-12-21T00:34:48.316Z,0
2017-12-21T00:35:56.402Z,0
2017-12-21T00:37:04.491Z,0
2017-12-21T00:38:12.574Z,0
2017-12-21T00:39:20.660Z,0
2017-12-21T00:40:28.745Z,0
2017-12-21T00:41:36.831Z,0
2017-12-21T00:42:44.915Z,0
2017-12-21T00:43:53.006Z,0
2017-12-21T00:45:01.101Z,0
2017-12-21T00:46:09.176Z,0
2017-12-21T00:47:17.269Z,0
2017-12-21T00:48:25.423Z,0
2017-12-21T00:49:33.466Z,0
2017-12-21T00:50:41.541Z,0
2017-12-21T00:51:49.626Z,0
2017-12-21T00:52:57.739Z,0
2017-12-21T00:54:05.797Z,0
2017-12-21T00:55:13.888Z,0
2017-12-21T00:56:21.971Z,0
2017-12-21T00:57:30.057Z,0
2017-12-21T00:58:38.141Z,0
2017-12-21T00:59:46.227Z,0
2017-12-21T01:00:54.777Z,0
2017-12-21T01:02:02.417Z,0
2017-12-21T01:03:10.487Z,0
2017-12-21T01:04:18.572Z,0
2017-12-21T01:05:26.677Z,0
2017-12-21T01:06:34.742Z,0
2017-12-21T01:07:42.839Z,0
2017-12-21T01:08:50.927Z,0
2017-12-21T01:09:59.075Z,0
2017-12-21T01:11:07.095Z,0
2017-12-21T01:12:15.203Z,0
2017-12-21T01:13:23.270Z,0
2017-12-21T01:14:31.357Z,0
2017-12-21T01:15:39.442Z,0
2017-12-21T01:16:47.527Z,0
2017-12-21T01:17:55.623Z,0
2017-12-21T01:19:03.709Z,0
2017-12-21T01:20:11.798Z,0
2017-12-21T01:21:19.892Z,0
2017-12-21T01:22:27.985Z,0
2017-12-21T01:23:36.070Z,0
2017-12-21T01:24:44.150Z,0
2017-12-21T01:25:52.237Z,0
2017-12-21T01:27:00.320Z,0
2017-12-21T01:28:08.406Z,0
2017-12-21T01:29:16.491Z,0
2017-12-21T01:30:24.577Z,0
2017-12-21T01:31:32.684Z,0
2017-12-21T01:32:40.749Z,0
2017-12-21T01:33:48.843Z,0
2017-12-21T01:34:56.930Z,0
2017-12-21T01:36:05.016Z,0
2017-12-21T01:37:13.112Z,0
2017-12-21T01:38:21.233Z,0
2017-12-21T01:39:29.286Z,0
2017-12-21T01:40:37.366Z,0
2017-12-21T01:41:45.451Z,0
2017-12-21T01:42:53.550Z,0
2017-12-21T01:44:01.627Z,0
2017-12-21T01:45:09.713Z,0
2017-12-21T01:46:17.799Z,0
2017-12-21T01:47:25.891Z,0
2017-12-21T01:48:33.970Z,0
2017-12-21T01:49:42.055Z,0
2017-12-21T01:50:50.163Z,0
2017-12-21T01:51:58.249Z,0
2017-12-21T01:53:06.337Z,0
2017-12-21T01:54:14.421Z,0
2017-12-21T01:55:22.522Z,0
2017-12-21T01:56:30.590Z,0
2017-12-21T01:57:38.681Z,0
2017-12-21T01:58:46.768Z,0
2017-12-21T01:59:54.853Z,0
2017-12-21T02:01:02.939Z,0
2017-12-21T02:02:11.027Z,0
2017-12-21T02:03:19.112Z,0
2017-12-21T02:04:27.196Z,0
2017-12-21T02:05:35.299Z,0
2017-12-21T02:06:43.383Z,0
2017-12-21T02:07:51.452Z,0
2017-12-21T02:08:59.539Z,0
2017-12-21T02:10:07.630Z,0
2017-12-21T02:11:15.768Z,0
2017-12-21T02:12:23.814Z,0
2017-12-21T02:13:31.884Z,0
2017-12-21T02:14:39.968Z,0
2017-12-21T02:15:48.063Z,0
2017-12-21T02:16:56.141Z,0
2017-12-21T02:18:04.227Z,0
2017-12-21T02:19:12.312Z,0
2017-12-21T02:20:20.402Z,0
2017-12-21T02:21:28.491Z,0
2017-12-21T02:22:36.569Z,0
2017-12-21T02:23:44.661Z,0
2017-12-21T02:24:52.747Z,0
2017-12-21T02:26:00.835Z,0
2017-12-21T02:27:08.928Z,0
2017-12-21T02:28:17.017Z,0
2017-12-21T02:29:25.146Z,0
2017-12-21T02:30:33.253Z,0
2017-12-21T02:31:41.340Z,0
2017-12-21T02:32:49.424Z,0
2017-12-21T02:33:57.508Z,0
2017-12-21T02:35:05.594Z,0
2017-12-21T02:36:13.678Z,0
2017-12-21T02:37:21.766Z,0
2017-12-21T02:38:29.849Z,0
2017-12-21T02:39:37.937Z,0
2017-12-21T02:40:46.024Z,0
2017-12-21T02:41:54.110Z,0
2017-12-21T02:43:02.192Z,0
2017-12-21T02:44:10.316Z,0
2017-12-21T02:45:18.370Z,0
2017-12-21T02:46:26.458Z,0
2017-12-21T02:47:34.548Z,0
2017-12-21T02:48:42.629Z,0
2017-12-21T02:49:50.720Z,0
2017-12-21T02:50:58.800Z,0
2017-12-21T02:52:06.882Z,0
2017-12-21T02:53:14.970Z,0
2017-12-21T02:54:23.057Z,0
2017-12-21T02:55:31.159Z,0
2017-12-21T02:56:39.226Z,0
2017-12-21T02:57:47.313Z,0
2017-12-21T02:58:55.416Z,0
2017-12-21T03:00:03.487Z,0
2017-12-21T03:01:11.579Z,0
2017-12-21T03:02:19.665Z,0
2017-12-21T03:03:27.755Z,0
2017-12-21T03:04:35.835Z,0
2017-12-21T03:05:43.927Z,0
2017-12-21T03:06:52.008Z,0
2017-12-21T03:08:00.090Z,0
2017-12-21T03:09:08.176Z,0
2017-12-21T03:10:16.260Z,0
2017-12-21T03:11:24.349Z,0
2017-12-21T03:12:32.430Z,0
2017-12-21T03:13:40.516Z,0
2017-12-21T03:14:48.614Z,0
2017-12-21T03:15:56.699Z,0
2017-12-21T03:17:04.786Z,0
2017-12-21T03:18:12.874Z,0
2017-12-21T03:19:20.956Z,0
2017-12-21T03:20:29.041Z,0
2017-12-21T03:21:37.128Z,0
2017-12-21T03:22:45.216Z,0
2017-12-21T03:23:53.360Z,0
2017-12-21T03:25:01.381Z,0
2017-12-21T03:26:09.468Z,0
2017-12-21T03:27:17.550Z,0
2017-12-21T03:28:25.632Z,0
2017-12-21T03:29:33.721Z,0
2017-12-21T03:30:41.804Z,0
2017-12-21T03:31:49.888Z,0
2017-12-21T03:32:57.972Z,0
2017-12-21T03:34:06.059Z,0
2017-12-21T03:35:14.144Z,0
2017-12-21T03:36:22.245Z,0
2017-12-21T03:37:30.318Z,0
2017-12-21T03:38:38.397Z,0
2017-12-21T03:39:46.482Z,0
2017-12-21T03:40:54.657Z,0
2017-12-21T03:42:02.651Z,0
2017-12-21T03:43:10.738Z,0
2017-12-21T03:44:18.823Z,0
2017-12-21T03:45:26.904Z,0
2017-12-21T03:46:34.989Z,0
2017-12-21T03:47:43.455Z,0
2017-12-21T03:48:51.541Z,0
2017-12-21T03:49:59.856Z,0
2017-12-21T03:51:07.980Z,0
2017-12-21T03:52:16.027Z,0
2017-12-21T03:53:24.110Z,0
2017-12-21T03:54:32.195Z,0
2017-12-21T03:55:40.284Z,0
2017-12-21T03:56:48.376Z,0
2017-12-21T03:57:56.450Z,0
2017-12-21T03:59:04.538Z,0
2017-12-21T04:00:12.620Z,0
2017-12-21T04:01:20.710Z,0
2017-12-21T04:02:28.795Z,0
2017-12-21T04:03:36.880Z,0
2017-12-21T04:04:44.965Z,0
2017-12-21T04:05:53.050Z,0
2017-12-21T04:07:01.133Z,0
2017-12-21T04:08:09.218Z,0
2017-12-21T04:09:17.301Z,0
2017-12-21T04:10:25.386Z,0
2017-12-21T04:11:33.471Z,0
2017-12-21T04:12:41.559Z,0
2017-12-21T04:13:49.657Z,0
2017-12-21T04:14:57.732Z,0
2017-12-21T04:16:05.815Z,0
2017-12-21T04:17:13.899Z,0
2017-12-21T04:18:21.988Z,0
2017-12-21T04:19:30.070Z,0
2017-12-21T04:20:38.489Z,0
2017-12-21T04:21:46.245Z,0
2017-12-21T04:22:54.332Z,0
2017-12-21T04:24:02.411Z,0
2017-12-21T04:25:10.495Z,0
2017-12-21T04:26:18.580Z,0
2017-12-21T04:27:26.663Z,0
2017-12-21T04:28:34.748Z,0
2017-12-21T04:29:42.837Z,0
2017-12-21T04:30:50.918Z,0
2017-12-21T04:31:59.019Z,0
2017-12-21T04:33:07.086Z,0
2017-12-21T04:34:15.169Z,0
2017-12-21T04:35:23.256Z,0
2017-12-21T04:36:31.336Z,0
2017-12-21T04:37:39.421Z,0
2017-12-21T04:38:47.506Z,0
2017-12-21T04:39:55.589Z,0
2017-12-21T04:41:03.684Z,0
2017-12-21T04:42:11.759Z,0
2017-12-21T04:43:19.847Z,0
2017-12-21T04:44:27.929Z,0
2017-12-21T04:45:36.014Z,0
2017-12-21T04:46:44.094Z,0
2017-12-21T04:47:52.197Z,0
2017-12-21T04:49:00.268Z,0
2017-12-21T04:50:08.349Z,0
2017-12-21T04:51:16.439Z,0
2017-12-21T04:52:24.519Z,0
2017-12-21T04:53:32.605Z,0
2017-12-21T04:54:40.687Z,0
2017-12-21T04:55:48.771Z,0
2017-12-21T04:56:56.852Z,0
2017-12-21T04:58:04.938Z,0
2017-12-21T04:59:13.023Z,0
2017-12-21T05:00:21.105Z,0
2017-12-21T05:01:29.196Z,0
2017-12-21T05:02:37.279Z,0
2017-12-21T05:03:45.368Z,0
2017-12-21T05:04:53.454Z,0
2017-12-21T05:06:01.537Z,0
2017-12-21T05:07:09.622Z,0
2017-12-21T05:08:17.707Z,0
2017-12-21T05:09:25.796Z,0
2017-12-21T05:10:33.881Z,0
2017-12-21T05:11:41.964Z,0
2017-12-21T05:12:50.047Z,0
2017-12-21T05:13:58.145Z,0
2017-12-21T05:15:06.246Z,0
2017-12-21T05:16:14.311Z,0
2017-12-21T05:17:22.397Z,0
2017-12-21T05:18:30.484Z,0
2017-12-21T05:19:38.563Z,0
2017-12-21T05:20:46.646Z,0
2017-12-21T05:21:54.727Z,0
2017-12-21T05:23:02.815Z,0
2017-12-21T05:24:10.949Z,0
2017-12-21T05:25:19.031Z,0
2017-12-21T05:26:27.113Z,0
2017-12-21T05:27:35.225Z,0
2017-12-21T05:28:43.281Z,0
2017-12-21T05:29:51.368Z,0
2017-12-21T05:30:59.451Z,0
2017-12-21T05:32:07.534Z,0
2017-12-21T05:33:15.616Z,0
2017-12-21T05:34:23.698Z,0
2017-12-21T05:35:31.783Z,0
2017-12-21T05:36:39.867Z,0
2017-12-21T05:37:47.958Z,0
2017-12-21T05:38:56.035Z,0
2017-12-21T05:40:04.119Z,0
2017-12-21T05:41:12.208Z,0
2017-12-21T05:42:20.286Z,0
2017-12-21T05:43:28.370Z,0
2017-12-21T05:44:36.460Z,0
2017-12-21T05:45:44.543Z,0
2017-12-21T05:46:52.631Z,0
2017-12-21T05:48:00.715Z,0
2017-12-21T05:49:08.798Z,0
2017-12-21T05:50:16.879Z,0
2017-12-21T05:51:24.962Z,0
2017-12-21T05:52:33.050Z,0
2017-12-21T05:53:41.129Z,0
2017-12-21T05:54:49.215Z,0
2017-12-21T05:55:57.303Z,0
2017-12-21T05:57:05.576Z,0
2017-12-21T05:58:13.683Z,0
2017-12-21T05:59:21.546Z,0
2017-12-21T06:00:29.635Z,0
2017-12-21T06:01:37.715Z,0
2017-12-21T06:02:45.801Z,0
2017-12-21T06:03:53.883Z,0
2017-12-21T06:05:01.967Z,0
2017-12-21T06:06:10.051Z,0
2017-12-21T06:07:18.135Z,0
2017-12-21T06:08:26.315Z,0
2017-12-21T06:09:34.301Z,0
2017-12-21T06:10:42.385Z,0
2017-12-21T06:11:50.472Z,0
2017-12-21T06:12:58.562Z,0
2017-12-21T06:14:06.644Z,0
2017-12-21T06:15:14.728Z,0
2017-12-21T06:16:22.846Z,0
2017-12-21T06:17:30.958Z,0
2017-12-21T06:18:39.003Z,0
2017-12-21T06:19:47.080Z,0
2017-12-21T06:20:55.145Z,0
2017-12-21T06:22:03.231Z,0
2017-12-21T06:23:11.315Z,0
2017-12-21T06:24:19.501Z,0
2017-12-21T06:25:27.483Z,0
2017-12-21T06:26:35.574Z,0
2017-12-21T06:27:43.655Z,0
2017-12-21T06:28:51.733Z,0
2017-12-21T06:29:59.819Z,0
2017-12-21T06:31:07.920Z,0
2017-12-21T06:32:16.002Z,0
2017-12-21T06:33:24.090Z,0
2017-12-21T06:34:32.175Z,0
2017-12-21T06:35:40.260Z,0
2017-12-21T06:36:48.336Z,0
2017-12-21T06:37:56.425Z,0
2017-12-21T06:39:04.525Z,0
2017-12-21T06:40:12.600Z,0
2017-12-21T06:41:20.726Z,0
2017-12-21T06:42:28.780Z,0
2017-12-21T06:43:36.860Z,0
2017-12-21T06:44:44.946Z,0
2017-12-21T06:45:53.031Z,0
2017-12-21T06:47:01.112Z,0
2017-12-21T06:48:09.194Z,0
2017-12-21T06:49:17.280Z,0
2017-12-21T06:50:25.366Z,0
2017-12-21T06:51:33.487Z,0
2017-12-21T06:52:41.571Z,0
2017-12-21T06:53:49.651Z,0
2017-12-21T06:54:57.740Z,0
2017-12-21T06:56:05.821Z,0
2017-12-21T06:57:13.914Z,0
2017-12-21T06:58:21.998Z,0
2017-12-21T06:59:30.086Z,0
2017-12-21T07:00:38.163Z,0
2017-12-21T07:01:46.265Z,0
2017-12-21T07:02:54.335Z,0
2017-12-21T07:04:02.413Z,0
2017-12-21T07:05:10.500Z,0
2017-12-21T07:06:18.581Z,0
2017-12-21T07:07:26.677Z,0
2017-12-21T07:08:34.765Z,4
2017-12-21T07:09:42.856Z,4
2017-12-21T07:10:50.939Z,0
2017-12-21T07:11:59.022Z,0
2017-12-21T07:13:07.106Z,0
2017-12-21T07:14:15.195Z,0
2017-12-21T07:15:23.274Z,4
2017-12-21T07:16:31.362Z,4
2017-12-21T07:17:39.447Z,4
2017-12-21T07:18:47.526Z,4
2017-12-21T07:19:55.617Z,0
2017-12-21T07:21:03.707Z,0
2017-12-21T07:22:11.789Z,4
2017-12-21T07:23:19.868Z,4
2017-12-21T07:24:27.952Z,4
2017-12-21T07:25:36.036Z,0
2017-12-21T07:26:44.121Z,4
2017-12-21T07:27:52.217Z,4
2017-12-21T07:29:00.320Z,4
2017-12-21T07:30:08.395Z,4
2017-12-21T07:31:16.485Z,4
2017-12-21T07:32:24.567Z,4
2017-12-21T07:33:32.648Z,4
2017-12-21T07:34:40.746Z,4
2017-12-21T07:35:48.811Z,8
2017-12-21T07:36:56.911Z,8
2017-12-21T07:38:05.003Z,8
2017-12-21T07:39:13.082Z,4
2017-12-21T07:40:21.165Z,4
2017-12-21T07:41:29.248Z,4
2017-12-21T07:42:37.338Z,4
2017-12-21T07:43:45.439Z,4
2017-12-21T07:44:53.506Z,4
2017-12-21T07:46:01.591Z,4
2017-12-21T07:47:09.887Z,4
2017-12-21T07:48:17.759Z,4
2017-12-21T07:49:25.844Z,8
2017-12-21T07:50:33.931Z,8
2017-12-21T07:51:42.017Z,8
2017-12-21T07:52:50.096Z,8
2017-12-21T07:53:58.186Z,12
2017-12-21T07:55:06.281Z,12
2017-12-21T07:56:14.361Z,12
2017-12-21T07:57:22.434Z,12
2017-12-21T07:58:30.538Z,12
2017-12-21T07:59:38.901Z,12
2017-12-21T08:00:46.986Z,12
2017-12-21T08:01:55.069Z,8
2017-12-21T08:03:03.153Z,12
2017-12-21T08:04:11.237Z,12
2017-12-21T08:05:19.323Z,12
2017-12-21T08:06:27.424Z,12
2017-12-21T08:07:35.497Z,16
2017-12-21T08:08:43.576Z,12
2017-12-21T08:09:51.662Z,16
2017-12-21T08:10:59.748Z,12
2017-12-21T08:12:07.843Z,16
2017-12-21T08:13:15.914Z,16
2017-12-21T08:14:23.998Z,16
2017-12-21T08:15:32.082Z,20
2017-12-21T08:16:40.174Z,20
2017-12-21T08:17:48.272Z,24
2017-12-21T08:18:56.349Z,20
2017-12-21T08:20:04.433Z,24
2017-12-21T08:21:12.518Z,24
2017-12-21T08:22:20.597Z,28
2017-12-21T08:23:28.684Z,24
2017-12-21T08:24:36.771Z,28
2017-12-21T08:25:44.855Z,32
2017-12-21T08:26:52.937Z,28
2017-12-21T08:28:01.035Z,28
2017-12-21T08:29:09.114Z,24
2017-12-21T08:30:17.202Z,28
2017-12-21T08:31:25.288Z,28
2017-12-21T08:32:33.375Z,24
2017-12-21T08:33:41.456Z,28
2017-12-21T08:34:49.542Z,24
2017-12-21T08:35:57.634Z,28
2017-12-21T08:37:05.711Z,32
2017-12-21T08:38:13.799Z,32
2017-12-21T08:39:21.878Z,32
2017-12-21T08:40:29.964Z,32
2017-12-21T08:41:38.060Z,32
2017-12-21T08:42:46.145Z,28
2017-12-21T08:43:54.234Z,28
2017-12-21T08:45:02.316Z,32
2017-12-21T08:46:10.400Z,28
2017-12-21T08:47:18.488Z,28
2017-12-21T08:48:26.570Z,28
2017-12-21T08:49:34.654Z,28
2017-12-21T08:50:42.739Z,28
2017-12-21T08:51:50.823Z,28
2017-12-21T08:52:58.909Z,28
2017-12-21T08:54:06.997Z,28
2017-12-21T08:55:15.082Z,28
2017-12-21T08:56:23.165Z,28
2017-12-21T08:57:31.260Z,28
2017-12-21T08:58:39.363Z,32
2017-12-21T08:59:47.436Z,28
2017-12-21T09:00:55.688Z,32
2017-12-21T09:02:03.772Z,32
2017-12-21T09:03:11.857Z,36
2017-12-21T09:04:19.940Z,36
2017-12-21T09:05:28.030Z,36
2017-12-21T09:06:36.130Z,36
2017-12-21T09:07:44.212Z,36
2017-12-21T09:08:52.283Z,32
2017-12-21T09:10:00.498Z,36
2017-12-21T09:11:08.460Z,32
2017-12-21T09:12:16.557Z,32
2017-12-21T09:13:24.684Z,32
2017-12-21T09:14:32.730Z,36
2017-12-21T09:15:40.815Z,36
2017-12-21T09:16:48.899Z,36
2017-12-21T09:17:56.986Z,36
2017-12-21T09:19:05.070Z,40
2017-12-21T09:20:13.155Z,40
2017-12-21T09:21:21.240Z,40
2017-12-21T09:22:29.344Z,40
2017-12-21T09:23:37.409Z,40
2017-12-21T09:24:45.498Z,40
2017-12-21T09:25:53.583Z,40
2017-12-21T09:27:01.666Z,40
2017-12-21T09:28:09.754Z,40
2017-12-21T09:29:17.836Z,40
2017-12-21T09:30:25.922Z,40
2017-12-21T09:31:34.009Z,40
2017-12-21T09:32:42.093Z,40
2017-12-21T09:33:50.180Z,44
2017-12-21T09:34:58.267Z,44
2017-12-21T09:36:06.369Z,48
2017-12-21T09:37:14.441Z,52
2017-12-21T09:38:22.521Z,56
2017-12-21T09:39:30.606Z,56
2017-12-21T09:40:38.689Z,56
2017-12-21T09:41:46.776Z,56
2017-12-21T09:42:54.862Z,60
2017-12-21T09:44:02.947Z,56
2017-12-21T09:45:11.034Z,52
2017-12-21T09:46:19.120Z,48
2017-12-21T09:47:27.208Z,48
2017-12-21T09:48:35.295Z,44
2017-12-21T09:49:43.780Z,44
2017-12-21T09:50:51.862Z,44
2017-12-21T09:51:59.950Z,44
2017-12-21T09:53:08.037Z,40
2017-12-21T09:54:16.122Z,44
2017-12-21T09:55:24.204Z,40
2017-12-21T09:56:32.289Z,40
2017-12-21T09:57:40.380Z,40
2017-12-21T09:58:48.539Z,44
2017-12-21T09:59:56.546Z,48
2017-12-21T10:01:04.633Z,48
2017-12-21T10:02:12.719Z,48
2017-12-21T10:03:20.806Z,52
2017-12-21T10:04:28.899Z,52
2017-12-21T10:05:36.993Z,56
2017-12-21T10:06:45.071Z,56
2017-12-21T10:07:53.156Z,56
2017-12-21T10:09:01.248Z,52
2017-12-21T10:10:09.332Z,52
2017-12-21T10:11:17.419Z,52
2017-12-21T10:12:25.502Z,48
2017-12-21T10:13:33.596Z,48
2017-12-21T10:14:41.673Z,48
2017-12-21T10:15:49.761Z,44
2017-12-21T10:16:57.868Z,44
2017-12-21T10:18:05.953Z,44
2017-12-21T10:19:14.040Z,44
2017-12-21T10:20:22.126Z,44
2017-12-21T10:21:30.215Z,44
2017-12-21T10:22:38.299Z,48
2017-12-21T10:23:46.383Z,48
2017-12-21T10:24:54.466Z,48
2017-12-21T10:26:02.552Z,52
2017-12-21T10:27:10.638Z,48
2017-12-21T10:28:18.738Z,48
2017-12-21T10:29:26.871Z,48
2017-12-21T10:30:34.903Z,44
2017-12-21T10:31:42.998Z,48
2017-12-21T10:32:51.085Z,44
2017-12-21T10:33:59.173Z,48
2017-12-21T10:35:07.262Z,48
2017-12-21T10:36:15.351Z,44
2017-12-21T10:37:23.431Z,44
2017-12-21T10:38:31.518Z,44
2017-12-21T10:39:39.607Z,44
2017-12-21T10:40:47.688Z,40
2017-12-21T10:41:55.775Z,40
2017-12-21T10:43:03.860Z,40
2017-12-21T10:44:11.951Z,40
2017-12-21T10:45:20.036Z,40
2017-12-21T10:46:28.122Z,40
2017-12-21T10:47:36.213Z,40
2017-12-21T10:48:44.298Z,36
2017-12-21T10:49:52.376Z,36
2017-12-21T10:51:00.467Z,36
2017-12-21T10:52:08.552Z,36
2017-12-21T10:53:16.636Z,40
2017-12-21T10:54:24.720Z,44
2017-12-21T10:55:32.808Z,44
2017-12-21T10:56:40.895Z,44
2017-12-21T10:57:48.979Z,48
2017-12-21T10:58:57.061Z,44
2017-12-21T11:00:05.159Z,48
2017-12-21T11:01:13.247Z,52
2017-12-21T11:02:21.337Z,48
2017-12-21T11:03:29.422Z,52
2017-12-21T11:04:37.510Z,52
2017-12-21T11:05:45.591Z,52
2017-12-21T11:06:53.686Z,52
2017-12-21T11:08:01.770Z,52
2017-12-21T11:09:09.855Z,48
2017-12-21T11:10:17.941Z,48
2017-12-21T11:11:26.023Z,48
2017-12-21T11:12:34.112Z,52
2017-12-21T11:13:42.199Z,52
2017-12-21T11:14:50.299Z,52
2017-12-21T11:15:58.367Z,48
2017-12-21T11:17:06.454Z,48
2017-12-21T11:18:14.540Z,48
2017-12-21T11:19:22.630Z,48
2017-12-21T11:20:30.709Z,52
2017-12-21T11:21:38.795Z,60
2017-12-21T11:22:46.881Z,64
2017-12-21T11:23:54.966Z,72
2017-12-21T11:25:03.055Z,76
2017-12-21T11:26:11.140Z,76
2017-12-21T11:27:19.233Z,72
2017-12-21T11:28:27.318Z,72
2017-12-21T11:29:35.397Z,72
2017-12-21T11:30:43.500Z,72
2017-12-21T11:31:51.588Z,72
2017-12-21T11:32:59.675Z,72
2017-12-21T11:34:07.761Z,76
2017-12-21T11:35:15.846Z,72
2017-12-21T11:36:23.960Z,72
2017-12-21T11:37:32.016Z,68
2017-12-21T11:38:40.101Z,60
2017-12-21T11:39:48.188Z,56
2017-12-21T11:40:56.272Z,56
2017-12-21T11:42:04.362Z,52
2017-12-21T11:43:12.444Z,52
2017-12-21T11:44:20.575Z,52
2017-12-21T11:45:28.658Z,48
2017-12-21T11:46:36.752Z,48
2017-12-21T11:47:44.850Z,48
2017-12-21T11:48:53.155Z,52
2017-12-21T11:50:01.246Z,52
2017-12-21T11:51:09.339Z,52
2017-12-21T11:52:17.425Z,52
2017-12-21T11:53:25.511Z,52
2017-12-21T11:54:33.594Z,48
2017-12-21T11:55:41.687Z,52
2017-12-21T11:56:49.765Z,48
2017-12-21T11:57:57.850Z,48
2017-12-21T11:59:05.934Z,44
2017-12-21T12:00:14.019Z,44
2017-12-21T12:01:22.106Z,44
2017-12-21T12:02:30.191Z,44
2017-12-21T12:03:38.276Z,44
2017-12-21T12:04:46.412Z,44
2017-12-21T12:05:54.500Z,40
2017-12-21T12:07:02.587Z,40
2017-12-21T12:08:10.661Z,40
2017-12-21T12:09:18.747Z,44
2017-12-21T12:10:26.838Z,40
2017-12-21T12:11:34.918Z,36
2017-12-21T12:12:43.005Z,36
2017-12-21T12:13:51.089Z,36
2017-12-21T12:14:59.178Z,36
2017-12-21T12:16:07.612Z,36
2017-12-21T12:17:15.344Z,36
2017-12-21T12:18:23.446Z,36
2017-12-21T12:19:31.515Z,36
2017-12-21T12:20:39.598Z,36
2017-12-21T12:21:47.687Z,40
2017-12-21T12:22:55.771Z,44
2017-12-21T12:24:03.873Z,44
2017-12-21T12:25:11.956Z,44
2017-12-21T12:26:20.043Z,48
2017-12-21T12:27:28.127Z,48
2017-12-21T12:28:36.211Z,48
2017-12-21T12:29:44.298Z,48
2017-12-21T12:30:52.386Z,48
2017-12-21T12:32:00.468Z,52
2017-12-21T12:33:08.562Z,48
2017-12-21T12:34:16.639Z,52
2017-12-21T12:35:24.727Z,48
2017-12-21T12:36:32.809Z,48
2017-12-21T12:37:40.894Z,44
2017-12-21T12:38:48.977Z,44
2017-12-21T12:39:57.064Z,40
2017-12-21T12:41:05.149Z,40
2017-12-21T12:42:13.237Z,36
2017-12-21T12:43:21.320Z,36
2017-12-21T12:44:29.404Z,36
2017-12-21T12:45:37.505Z,32
2017-12-21T12:46:45.573Z,32
2017-12-21T12:47:53.660Z,32
2017-12-21T12:49:01.745Z,28
2017-12-21T12:50:09.830Z,28
2017-12-21T12:51:17.916Z,28
2017-12-21T12:52:26.000Z,24
2017-12-21T12:53:34.131Z,24
2017-12-21T12:54:42.169Z,24
2017-12-21T12:55:50.256Z,24
2017-12-21T12:56:58.338Z,24
2017-12-21T12:58:06.425Z,20
2017-12-21T12:59:14.508Z,20
2017-12-21T13:00:22.595Z,20
2017-12-21T13:01:30.679Z,20
2017-12-21T13:02:38.767Z,20
2017-12-21T13:03:46.846Z,20
2017-12-21T13:04:54.956Z,20
2017-12-21T13:06:03.045Z,20
2017-12-21T13:07:11.125Z,20
2017-12-21T13:08:19.210Z,20
2017-12-21T13:09:27.297Z,20
2017-12-21T13:10:35.388Z,20
2017-12-21T13:11:43.479Z,20
2017-12-21T13:12:51.556Z,20
2017-12-21T13:13:59.642Z,16
2017-12-21T13:15:07.732Z,16
2017-12-21T13:16:15.875Z,16
2017-12-21T13:17:23.896Z,16
2017-12-21T13:18:31.981Z,16
2017-12-21T13:19:40.066Z,16
2017-12-21T13:20:48.151Z,16
2017-12-21T13:21:56.241Z,12
2017-12-21T13:23:04.320Z,16
2017-12-21T13:24:12.405Z,16
2017-12-21T13:25:20.497Z,16
2017-12-21T13:26:28.577Z,16
2017-12-21T13:27:36.657Z,16
2017-12-21T13:28:44.747Z,16
2017-12-21T13:29:52.830Z,16
2017-12-21T13:31:00.913Z,16
2017-12-21T13:32:09.003Z,12
2017-12-21T13:33:17.085Z,16
2017-12-21T13:34:25.171Z,12
2017-12-21T13:35:33.254Z,16
2017-12-21T13:36:41.342Z,16
2017-12-21T13:37:49.428Z,12
2017-12-21T13:38:57.514Z,12
2017-12-21T13:40:05.597Z,12
2017-12-21T13:41:13.685Z,12
2017-12-21T13:42:21.764Z,16
2017-12-21T13:43:29.850Z,12
2017-12-21T13:44:37.936Z,12
2017-12-21T13:45:46.021Z,12
2017-12-21T13:46:54.099Z,12
2017-12-21T13:48:02.185Z,12
2017-12-21T13:49:10.273Z,12
2017-12-21T13:50:18.371Z,16
2017-12-21T13:51:26.437Z,12
2017-12-21T13:52:34.523Z,12
2017-12-21T13:53:42.614Z,12
2017-12-21T13:54:50.689Z,16
2017-12-21T13:55:58.775Z,12
2017-12-21T13:57:06.860Z,16
2017-12-21T13:58:14.943Z,16
2017-12-21T13:59:23.029Z,16
2017-12-21T14:00:31.113Z,16
2017-12-21T14:01:39.200Z,20
2017-12-21T14:02:47.300Z,20
2017-12-21T14:03:55.366Z,20
2017-12-21T14:05:03.448Z,16
2017-12-21T14:06:11.533Z,16
2017-12-21T14:07:19.617Z,16
2017-12-21T14:08:27.703Z,16
2017-12-21T14:09:35.791Z,16
2017-12-21T14:10:43.881Z,16
2017-12-21T14:11:51.968Z,16
2017-12-21T14:13:00.046Z,16
2017-12-21T14:14:08.132Z,16
2017-12-21T14:15:16.223Z,16
2017-12-21T14:16:24.303Z,16
2017-12-21T14:17:32.383Z,16
2017-12-21T14:18:40.467Z,16
2017-12-21T14:19:48.553Z,16
2017-12-21T14:20:56.638Z,16
2017-12-21T14:22:04.720Z,16
2017-12-21T14:23:12.805Z,16
2017-12-21T14:24:20.888Z,16
2017-12-21T14:25:28.973Z,12
2017-12-21T14:26:37.056Z,16
2017-12-21T14:27:45.142Z,12
2017-12-21T14:28:53.229Z,12
2017-12-21T14:30:01.305Z,8
2017-12-21T14:31:09.401Z,12
2017-12-21T14:32:17.482Z,8
2017-12-21T14:33:25.569Z,12
2017-12-21T14:34:33.660Z,8
2017-12-21T14:35:41.750Z,12
2017-12-21T14:36:49.827Z,8
2017-12-21T14:37:57.912Z,8
2017-12-21T14:39:05.997Z,8
2017-12-21T14:40:14.080Z,8
2017-12-21T14:41:22.167Z,8
2017-12-21T14:42:30.248Z,8
2017-12-21T14:43:38.335Z,4
2017-12-21T14:44:46.753Z,4
2017-12-21T14:45:54.839Z,4
2017-12-21T14:47:02.920Z,8
2017-12-21T14:48:11.006Z,4
2017-12-21T14:49:19.088Z,4
2017-12-21T14:50:27.172Z,4
2017-12-21T14:51:35.254Z,4
2017-12-21T14:52:43.338Z,4
2017-12-21T14:53:51.427Z,4
2017-12-21T14:54:59.507Z,8
2017-12-21T14:56:07.593Z,4
2017-12-21T14:57:15.675Z,4
2017-12-21T14:58:23.761Z,4
2017-12-21T14:59:31.846Z,4
2017-12-21T15:00:39.925Z,4
2017-12-21T15:01:48.015Z,4
2017-12-21T15:02:56.093Z,4
2017-12-21T15:04:04.178Z,4
2017-12-21T15:05:12.266Z,0
2017-12-21T15:06:20.345Z,0
2017-12-21T15:07:28.428Z,4
2017-12-21T15:08:36.513Z,4
2017-12-21T15:09:44.599Z,4
2017-12-21T15:10:52.679Z,4
2017-12-21T15:12:00.762Z,4
2017-12-21T15:13:08.846Z,4
2017-12-21T15:14:16.930Z,4
2017-12-21T15:15:25.013Z,4
2017-12-21T15:16:33.103Z,4
2017-12-21T15:17:41.198Z,0
2017-12-21T15:18:49.266Z,0
2017-12-21T15:19:57.369Z,0
2017-12-21T15:21:05.435Z,0
2017-12-21T15:22:13.525Z,0
2017-12-21T15:23:21.608Z,0
2017-12-21T15:24:29.739Z,4
2017-12-21T15:25:37.865Z,4
2017-12-21T15:26:45.949Z,0
2017-12-21T15:27:54.038Z,0
2017-12-21T15:29:02.115Z,0
2017-12-21T15:30:10.199Z,0
2017-12-21T15:31:18.287Z,0
2017-12-21T15:32:26.373Z,0.00
2017-12-21T15:33:34.455Z,0
2017-12-21T15:34:42.539Z,0
2017-12-21T15:35:50.623Z,0
2017-12-21T15:36:58.707Z,0
2017-12-21T15:38:06.791Z,0
2017-12-21T15:39:14.875Z,0
2017-12-21T15:40:22.955Z,0
2017-12-21T15:41:31.041Z,0
2017-12-21T15:42:39.124Z,0
2017-12-21T15:43:47.214Z,0
2017-12-21T15:44:55.290Z,0
2017-12-21T15:46:03.375Z,0
2017-12-21T15:47:11.463Z,0
2017-12-21T15:48:19.542Z,0
2017-12-21T15:49:27.623Z,0
2017-12-21T15:50:35.718Z,0
2017-12-21T15:51:43.797Z,0
2017-12-21T15:52:51.885Z,0
2017-12-21T15:53:59.975Z,0
2017-12-21T15:55:08.050Z,0
2017-12-21T15:56:16.134Z,0
2017-12-21T15:57:24.242Z,0
2017-12-21T15:58:32.348Z,0
2017-12-21T15:59:40.418Z,0
2017-12-21T16:00:48.528Z,0
2017-12-21T16:01:56.619Z,0
2017-12-21T16:03:04.696Z,0
2017-12-21T16:04:12.780Z,0
2017-12-21T16:05:20.868Z,0
2017-12-21T16:06:28.949Z,0
2017-12-21T16:07:37.031Z,0
2017-12-21T16:08:45.119Z,0
2017-12-21T16:09:53.202Z,0
2017-12-21T16:11:01.292Z,0
2017-12-21T16:12:09.365Z,0
2017-12-21T16:13:17.459Z,0
2017-12-21T16:14:25.536Z,0
2017-12-21T16:15:33.615Z,0
2017-12-21T16:16:41.698Z,0
2017-12-21T16:17:49.781Z,0
2017-12-21T16:18:57.869Z,0
2017-12-21T16:20:05.980Z,0
2017-12-21T16:21:14.039Z,0
2017-12-21T16:22:22.134Z,0
2017-12-21T16:23:30.215Z,0
2017-12-21T16:24:38.298Z,0
2017-12-21T16:25:46.382Z,0
2017-12-21T16:26:54.465Z,0
2017-12-21T16:28:02.545Z,0
2017-12-21T16:29:10.637Z,0
2017-12-21T16:30:18.721Z,0
2017-12-21T16:31:26.804Z,0
2017-12-21T16:32:34.888Z,0